createdAt,value
2022-09-11T00:07:05.242Z,20.41
2022-09-11T00:09:42.819Z,20.42
2022-09-11T00:12:18.043Z,20.44
2022-09-11T00:14:57.433Z,20.46
2022-09-11T00:17:55.585Z,20.48
2022-09-11T00:20:33.768Z,20.50
2022-09-11T00:26:33.892Z,20.53
2022-09-11T00:36:06.369Z,20.58
2022-09-11T00:39:32.302Z,20.60
2022-09-11T00:42:35.383Z,20.60
2022-09-11T00:45:36.865Z,20.57
2022-09-11T00:48:36.192Z,20.57
2022-09-11T00:51:35.867Z,20.61
2022-09-11T00:57:47.962Z,20.67
2022-09-11T01:00:26.407Z,20.69
2022-09-11T01:03:26.099Z,20.66
2022-09-11T01:06:14.439Z,20.66
2022-09-11T01:08:50.602Z,20.69
2022-09-11T01:11:44.909Z,20.73
2022-09-11T01:18:09.333Z,20.74
2022-09-11T01:21:00.197Z,20.70
2022-09-11T01:27:53.792Z,20.76
2022-09-11T01:30:36.947Z,20.75
2022-09-11T01:39:38.272Z,20.62
2022-09-11T01:42:23.010Z,20.61
2022-09-11T01:45:02.634Z,20.68
2022-09-11T01:47:36.963Z,20.70
2022-09-11T01:50:18.440Z,20.77
2022-09-11T01:53:04.529Z,20.77
2022-09-11T01:55:49.356Z,20.72
2022-09-11T02:02:07.539Z,20.61
2022-09-11T02:04:48.150Z,20.57
2022-09-11T02:11:05.089Z,20.59
2022-09-11T02:14:09.631Z,20.55
2022-09-11T02:20:49.092Z,20.46
2022-09-11T02:23:30.169Z,20.37
2022-09-11T02:26:52.399Z,20.29
2022-09-11T02:29:54.334Z,20.19
2022-09-11T02:32:53.389Z,20.20
2022-09-11T02:35:29.817Z,20.15
2022-09-11T02:38:16.849Z,20.17
2022-09-11T02:44:37.059Z,20.16
2022-09-11T02:50:37.725Z,20.25
2022-09-11T02:54:08.064Z,20.24
2022-09-11T03:00:27.551Z,20.39
2022-09-11T03:03:02.495Z,20.44
2022-09-11T03:06:07.628Z,20.48
2022-09-11T03:08:46.635Z,20.49
2022-09-11T03:12:37.394Z,20.44
2022-09-11T03:16:02.231Z,20.44
2022-09-11T03:19:04.745Z,20.54
2022-09-11T03:21:44.402Z,20.57
2022-09-11T03:25:09.151Z,20.61
2022-09-11T03:36:58.730Z,20.51
2022-09-11T03:39:34.521Z,20.50
2022-09-11T03:42:14.198Z,20.53
2022-09-11T03:45:39.751Z,20.58
2022-09-11T03:49:03.520Z,20.58
2022-09-11T03:52:04.529Z,20.57
2022-09-11T03:54:49.001Z,20.64
2022-09-11T03:57:50.087Z,20.66
2022-09-11T04:00:54.532Z,20.71
2022-09-11T04:03:31.646Z,20.61
2022-09-11T04:06:34.538Z,20.61
2022-09-11T04:09:08.682Z,20.60
2022-09-11T04:12:14.454Z,20.56
2022-09-11T04:15:18.095Z,20.58
2022-09-11T04:18:02.181Z,20.52
2022-09-11T04:22:17.686Z,20.57
2022-09-11T04:25:41.363Z,20.60
2022-09-11T04:29:04.207Z,20.62
2022-09-11T04:32:07.099Z,20.63
2022-09-11T04:34:44.086Z,20.67
2022-09-11T04:38:04.772Z,20.62
2022-09-11T04:41:30.977Z,20.69
2022-09-11T04:44:30.304Z,20.71
2022-09-11T04:47:28.227Z,20.83
2022-09-11T04:50:28.939Z,20.95
2022-09-11T04:53:03.778Z,21.03
2022-09-11T04:56:03.214Z,21.10
2022-09-11T04:59:10.046Z,21.22
2022-09-11T05:01:52.419Z,21.17
2022-09-11T05:04:30.750Z,21.16
2022-09-11T05:07:05.047Z,21.22
2022-09-11T05:09:39.506Z,21.28
2022-09-11T05:12:14.591Z,21.33
2022-09-11T05:14:52.533Z,21.31
2022-09-11T05:17:57.088Z,21.28
2022-09-11T05:24:53.059Z,21.32
2022-09-11T05:27:30.125Z,21.35
2022-09-11T05:30:33.538Z,21.39
2022-09-11T05:33:16.851Z,21.44
2022-09-11T05:36:37.916Z,21.46
2022-09-11T05:40:00.467Z,21.54
2022-09-11T05:42:36.164Z,21.64
2022-09-11T05:45:22.649Z,21.71
2022-09-11T05:48:03.631Z,21.80
2022-09-11T05:54:00.950Z,21.90
2022-09-11T05:56:36.166Z,21.89
2022-09-11T05:59:39.841Z,21.88
2022-09-11T06:02:40.374Z,21.91
2022-09-11T06:05:44.954Z,21.89
2022-09-11T06:08:28.382Z,21.92
2022-09-11T06:11:30.321Z,21.94
2022-09-11T06:14:28.426Z,21.95
2022-09-11T06:17:31.905Z,21.94
2022-09-11T06:20:41.230Z,22.03
2022-09-11T06:26:39.306Z,22.09
2022-09-11T06:29:17.884Z,21.90
2022-09-11T06:31:58.322Z,21.87
2022-09-11T06:34:36.544Z,21.90
2022-09-11T06:37:37.120Z,21.92
2022-09-11T06:40:38.229Z,21.95
2022-09-11T06:43:39.047Z,21.83
2022-09-11T06:46:39.454Z,21.69
2022-09-11T06:49:17.040Z,21.60
2022-09-11T06:51:56.383Z,21.52
2022-09-11T06:57:51.450Z,21.36
2022-09-11T07:00:31.304Z,21.35
2022-09-11T07:03:11.988Z,21.38
2022-09-11T07:05:51.999Z,21.41
2022-09-11T07:08:53.267Z,21.40
2022-09-11T07:11:28.096Z,21.35
2022-09-11T07:15:15.965Z,21.35
2022-09-11T07:17:50.751Z,21.41
2022-09-11T07:20:53.577Z,21.40
2022-09-11T07:24:38.868Z,21.33
2022-09-11T07:28:04.965Z,21.47
2022-09-11T07:30:42.172Z,21.56
2022-09-11T07:33:18.845Z,21.61
2022-09-11T07:36:18.774Z,21.73
2022-09-11T07:38:58.337Z,21.60
2022-09-11T07:41:34.243Z,21.64
2022-09-11T07:44:17.151Z,21.61
2022-09-11T07:47:19.369Z,21.55
2022-09-11T07:49:52.707Z,21.51
2022-09-11T07:56:20.718Z,21.63
2022-09-11T07:58:57.265Z,21.71
2022-09-11T08:01:35.727Z,21.73
2022-09-11T08:04:11.723Z,21.77
2022-09-11T08:06:48.014Z,21.83
2022-09-11T08:09:21.186Z,21.96
2022-09-11T08:11:56.307Z,21.99
2022-09-11T08:14:29.307Z,22.04
2022-09-11T08:17:02.951Z,22.13
2022-09-11T08:19:39.223Z,22.36
2022-09-11T08:22:12.469Z,22.46
2022-09-11T08:24:45.054Z,22.62
2022-09-11T08:27:20.183Z,22.78
2022-09-11T08:29:53.375Z,22.93
2022-09-11T08:32:25.648Z,22.97
2022-09-11T08:34:59.842Z,23.04
2022-09-11T08:37:34.268Z,23.31
2022-09-11T08:40:10.438Z,23.46
2022-09-11T08:42:46.130Z,23.59
2022-09-11T08:45:21.610Z,23.67
2022-09-11T08:47:59.307Z,23.84
2022-09-11T08:50:36.231Z,23.79
2022-09-11T08:53:12.839Z,23.91
2022-09-11T08:55:48.463Z,24.02
2022-09-11T08:58:27.730Z,24.02
2022-09-11T09:01:09.858Z,23.90
2022-09-11T09:03:59.376Z,23.73
2022-09-11T09:06:43.893Z,23.55
2022-09-11T09:09:22.942Z,23.46
2022-09-11T09:11:59.983Z,23.44
2022-09-11T09:14:53.635Z,23.57
2022-09-11T09:17:28.155Z,23.64
2022-09-11T09:20:04.454Z,23.59
2022-09-11T09:22:44.138Z,23.56
2022-09-11T09:25:23.806Z,23.56
2022-09-11T09:28:00.592Z,23.68
2022-09-11T09:30:45.438Z,23.72
2022-09-11T09:33:31.994Z,23.72
2022-09-11T09:36:17.569Z,23.67
2022-09-11T09:38:50.293Z,23.79
2022-09-11T09:41:44.506Z,23.88
2022-09-11T09:44:24.412Z,23.92
2022-09-11T09:46:57.733Z,23.95
2022-09-11T09:49:31.812Z,23.91
2022-09-11T09:52:14.364Z,23.91
2022-09-11T09:54:53.694Z,24.02
2022-09-11T09:58:01.210Z,24.17
2022-09-11T10:00:39.406Z,24.45
2022-09-11T10:03:54.540Z,24.48
2022-09-11T10:06:58.901Z,24.46
2022-09-11T10:09:34.842Z,24.42
2022-09-11T10:16:02.926Z,24.64
2022-09-11T10:19:11.885Z,24.57
2022-09-11T10:22:01.177Z,24.48
2022-09-11T10:24:41.424Z,24.54
2022-09-11T10:31:08.405Z,24.42
2022-09-11T10:33:53.750Z,24.46
2022-09-11T10:36:34.954Z,24.42
2022-09-11T10:39:23.299Z,24.61
2022-09-11T10:45:35.157Z,25.06
2022-09-11T10:52:25.480Z,25.65
2022-09-11T10:55:19.147Z,25.58
2022-09-11T11:04:15.531Z,25.84
2022-09-11T11:07:08.397Z,25.89
2022-09-11T11:09:57.388Z,25.79
2022-09-11T11:12:53.242Z,25.57
2022-09-11T11:16:01.821Z,25.53
2022-09-11T11:23:23.524Z,25.68
2022-09-11T11:26:01.467Z,25.75
2022-09-11T11:29:23.048Z,25.70
2022-09-11T11:39:02.059Z,26.00
2022-09-11T11:42:09.075Z,26.33
2022-09-11T11:48:23.653Z,26.54
2022-09-11T11:51:44.601Z,26.58
2022-09-11T11:54:33.243Z,26.59
2022-09-11T12:07:53.395Z,27.50
2022-09-11T12:14:03.735Z,27.34
2022-09-11T12:16:41.103Z,27.25
2022-09-11T12:19:44.047Z,27.35
2022-09-11T12:22:53.401Z,27.51
2022-09-11T12:29:56.548Z,27.75
2022-09-11T12:32:46.122Z,27.49
2022-09-11T12:36:20.442Z,27.45
2022-09-11T12:39:29.387Z,27.32
2022-09-11T12:42:43.838Z,27.23
2022-09-11T12:45:38.604Z,27.04
2022-09-11T12:52:44.292Z,26.90
2022-09-11T12:55:36.554Z,26.75
2022-09-11T12:58:37.182Z,26.60
2022-09-11T13:04:29.580Z,26.22
2022-09-11T13:07:10.222Z,26.23
2022-09-11T13:09:49.917Z,26.11
2022-09-11T13:12:55.437Z,25.99
2022-09-11T13:16:08.977Z,25.97
2022-09-11T13:18:50.951Z,25.93
2022-09-11T13:21:34.579Z,25.89
2022-09-11T13:28:04.240Z,25.74
2022-09-11T13:31:00.915Z,25.70
2022-09-11T13:34:07.577Z,25.78
2022-09-11T13:37:10.140Z,25.85
2022-09-11T13:39:51.340Z,25.98
2022-09-11T13:49:38.798Z,26.28
2022-09-11T13:52:41.582Z,26.42
2022-09-11T13:55:39.715Z,26.40
2022-09-11T13:59:07.877Z,26.31
2022-09-11T14:02:09.621Z,26.15
2022-09-11T14:04:55.075Z,26.23
2022-09-11T14:07:30.157Z,26.23
2022-09-11T14:13:54.320Z,25.99
2022-09-11T14:17:01.618Z,25.96
2022-09-11T14:19:48.579Z,25.70
2022-09-11T14:23:00.853Z,25.41
2022-09-11T14:26:09.237Z,25.22
2022-09-11T14:32:40.936Z,24.62
2022-09-11T14:35:44.120Z,24.31
2022-09-11T14:38:55.399Z,23.71
2022-09-11T14:41:56.711Z,23.36
2022-09-11T14:44:33.652Z,22.66
2022-09-11T14:50:44.620Z,21.52
2022-09-11T14:53:21.807Z,21.42
2022-09-11T15:08:46.185Z,21.15
2022-09-11T15:11:57.814Z,21.18
2022-09-11T15:14:55.871Z,21.18
2022-09-11T15:17:42.991Z,21.25
2022-09-11T15:26:58.517Z,21.42
2022-09-11T15:30:24.552Z,21.45
2022-09-11T15:34:17.098Z,21.48
2022-09-11T15:40:39.958Z,21.45
2022-09-11T15:43:21.155Z,21.46
2022-09-11T15:49:34.195Z,21.53
2022-09-11T15:52:13.840Z,21.53
2022-09-11T15:54:53.140Z,21.45
2022-09-11T15:57:40.033Z,21.47
2022-09-11T16:00:45.057Z,21.57
2022-09-11T16:03:41.654Z,21.66
2022-09-11T16:09:28.425Z,21.67
2022-09-11T16:12:06.303Z,21.60
2022-09-11T16:17:54.326Z,21.51
2022-09-11T16:20:39.862Z,21.47
2022-09-11T16:23:43.631Z,21.42
2022-09-11T16:26:31.548Z,21.41
2022-09-11T16:32:59.894Z,21.43
2022-09-11T16:35:41.038Z,21.47
2022-09-11T16:38:44.219Z,21.48
2022-09-11T16:41:25.657Z,21.47
2022-09-11T16:44:36.537Z,21.47
2022-09-11T16:48:05.654Z,21.47
2022-09-11T16:50:51.844Z,21.55
2022-09-11T16:54:01.670Z,21.48
2022-09-11T16:56:46.054Z,21.47
2022-09-11T17:02:40.460Z,21.49
2022-09-11T17:05:40.672Z,21.47
2022-09-11T17:08:20.918Z,21.49
2022-09-11T17:14:30.826Z,21.38
2022-09-11T17:17:07.173Z,21.31
2022-09-11T17:22:57.445Z,21.24
2022-09-11T17:25:37.029Z,21.32
2022-09-11T17:28:24.386Z,21.31
2022-09-11T17:31:28.360Z,21.26
2022-09-11T17:34:32.245Z,21.23
2022-09-11T17:37:12.677Z,21.28
2022-09-11T17:39:51.365Z,21.34
2022-09-11T17:42:50.152Z,21.39
2022-09-11T17:45:54.521Z,21.37
2022-09-11T17:51:31.767Z,21.31
2022-09-11T17:54:37.731Z,21.34
2022-09-11T17:57:41.538Z,21.34
2022-09-11T18:00:30.885Z,21.31
2022-09-11T18:06:44.875Z,21.27
2022-09-11T18:09:29.820Z,21.21
2022-09-11T18:12:11.932Z,21.23
2022-09-11T18:14:54.998Z,21.18
2022-09-11T18:17:58.830Z,21.08
2022-09-11T18:24:09.918Z,20.89
2022-09-11T18:26:56.081Z,20.82
2022-09-11T18:30:01.195Z,20.71
2022-09-11T18:32:37.677Z,20.65
2022-09-11T18:35:42.962Z,20.62
2022-09-11T18:38:51.265Z,20.65
2022-09-11T18:42:03.275Z,20.62
2022-09-11T18:45:11.684Z,20.60
2022-09-11T18:54:35.926Z,20.44
2022-09-11T18:58:06.353Z,20.38
2022-09-11T19:00:48.771Z,20.35
2022-09-11T19:03:36.475Z,20.29
2022-09-11T19:06:25.827Z,20.35
2022-09-11T19:12:27.972Z,20.41
2022-09-11T19:18:34.147Z,20.38
2022-09-11T19:21:31.988Z,20.42
2022-09-11T19:24:32.617Z,20.45
2022-09-11T19:30:25.904Z,20.43
2022-09-11T19:33:05.810Z,20.44
2022-09-11T19:35:50.994Z,20.41
2022-09-11T19:38:34.992Z,20.40
2022-09-11T19:48:11.896Z,20.24
2022-09-11T19:50:49.050Z,20.21
2022-09-11T19:53:46.367Z,20.18
2022-09-11T19:56:25.910Z,20.11
2022-09-11T19:59:00.286Z,20.14
2022-09-11T20:01:40.346Z,20.13
2022-09-11T20:07:18.512Z,20.09
2022-09-11T20:09:50.916Z,20.07
2022-09-11T20:12:29.393Z,20.05
2022-09-11T20:15:15.279Z,20.03
2022-09-11T20:17:50.712Z,20.01
2022-09-11T20:20:36.835Z,19.98
2022-09-11T20:26:17.409Z,19.81
2022-09-11T20:29:03.014Z,19.76
2022-09-11T20:32:04.309Z,19.73
2022-09-11T20:34:41.190Z,19.72
2022-09-11T20:38:07.380Z,19.68
2022-09-11T20:40:44.500Z,19.67
2022-09-11T20:43:41.000Z,19.66
2022-09-11T20:47:04.856Z,19.61
2022-09-11T20:49:41.941Z,19.56
2022-09-11T20:55:42.564Z,19.46
2022-09-11T20:58:19.530Z,19.40
2022-09-11T21:04:17.197Z,19.37
2022-09-11T21:06:55.166Z,19.38
2022-09-11T21:09:28.733Z,19.39
2022-09-11T21:12:04.327Z,19.35
2022-09-11T21:14:40.750Z,19.30
2022-09-11T21:18:05.267Z,19.26
2022-09-11T21:20:41.904Z,19.23
2022-09-11T21:23:21.056Z,19.19
2022-09-11T21:26:26.605Z,19.19
2022-09-11T21:29:11.697Z,19.14
2022-09-11T21:31:56.130Z,19.12
2022-09-11T21:35:17.257Z,19.09
2022-09-11T21:38:00.480Z,19.06
2022-09-11T21:40:37.649Z,18.99
2022-09-11T21:43:12.434Z,18.96
2022-09-11T21:45:44.545Z,18.93
2022-09-11T21:51:41.881Z,18.88
2022-09-11T21:54:18.723Z,18.87
2022-09-11T22:00:24.470Z,18.86
2022-09-11T22:02:59.835Z,18.84
2022-09-11T22:12:13.526Z,18.96
2022-09-11T22:18:38.747Z,19.02
2022-09-11T22:24:44.442Z,19.14
2022-09-11T22:27:45.064Z,19.15
2022-09-11T22:31:13.485Z,19.17
2022-09-11T22:34:14.849Z,19.14
2022-09-11T22:36:55.139Z,19.08
2022-09-11T22:39:29.606Z,19.05
2022-09-11T22:42:09.324Z,19.06
2022-09-11T22:45:36.308Z,18.92
2022-09-11T22:48:14.557Z,18.87
2022-09-11T22:51:19.427Z,18.88
2022-09-11T22:53:55.103Z,18.79
2022-09-11T22:56:57.047Z,18.73
2022-09-11T22:59:31.652Z,18.74
2022-09-11T23:02:52.821Z,18.75
2022-09-11T23:08:49.437Z,18.79
2022-09-11T23:11:50.063Z,18.80
2022-09-11T23:15:19.195Z,18.82
2022-09-11T23:18:02.207Z,18.86
2022-09-11T23:24:06.544Z,18.85
2022-09-11T23:27:06.840Z,18.87
2022-09-11T23:29:41.698Z,18.87
2022-09-11T23:32:18.616Z,18.89
2022-09-11T23:35:16.691Z,18.92
2022-09-11T23:38:42.952Z,18.98
2022-09-11T23:44:45.306Z,19.02
2022-09-11T23:48:11.118Z,19.04
2022-09-11T23:50:45.810Z,19.03
2022-09-11T23:53:47.804Z,19.04
2022-09-11T23:56:50.547Z,18.99
